createdAt,value
2024-04-06T04:15:25.331Z,478.00
2024-04-06T04:16:25.420Z,471.00
2024-04-06T04:17:25.617Z,474.00
2024-04-06T04:18:25.782Z,475.00
2024-04-06T04:19:25.817Z,477.00
2024-04-06T04:20:25.937Z,473.00
2024-04-06T04:21:26.057Z,473.00
2024-04-06T04:22:29.263Z,472.00
2024-04-06T04:23:26.295Z,468.00
2024-04-06T04:24:26.400Z,468.00
2024-04-06T04:25:26.539Z,465.00
2024-04-06T04:26:26.616Z,465.00
2024-04-06T04:27:26.843Z,465.00
2024-04-06T04:28:26.905Z,466.00
2024-04-06T04:29:27.046Z,465.00
2024-04-06T04:30:27.128Z,467.00
2024-04-06T04:31:27.232Z,467.00
2024-04-06T04:32:27.371Z,467.00
2024-04-06T04:33:27.503Z,467.00
2024-04-06T04:34:27.595Z,466.00
2024-04-06T04:35:27.691Z,466.00
2024-04-06T04:36:27.801Z,469.00
2024-04-06T04:37:27.942Z,466.00
2024-04-06T04:38:28.153Z,465.00
2024-04-06T04:39:28.168Z,464.00
2024-04-06T04:40:28.387Z,466.00
2024-04-06T04:41:28.438Z,466.00
2024-04-06T04:42:28.558Z,464.00
2024-04-06T04:43:28.708Z,465.00
2024-04-06T04:44:38.376Z,463.00
2024-04-06T04:45:29.937Z,463.00
2024-04-06T04:46:29.042Z,463.00
2024-04-06T04:47:29.214Z,463.00
2024-04-06T04:48:29.314Z,465.00
2024-04-06T04:49:29.439Z,463.00
2024-04-06T04:50:29.603Z,465.00
2024-04-06T04:51:29.693Z,467.00
2024-04-06T04:52:29.832Z,464.00
2024-04-06T04:53:29.984Z,461.00
2024-04-06T04:54:30.103Z,460.00
2024-04-06T04:55:30.231Z,459.00
2024-04-06T04:56:30.391Z,459.00
2024-04-06T04:57:30.472Z,460.00
2024-04-06T04:58:30.595Z,461.00
2024-04-06T04:59:30.792Z,464.00
2024-04-06T05:00:30.915Z,465.00
2024-04-06T05:01:31.071Z,464.00
2024-04-06T05:02:31.205Z,462.00
2024-04-06T05:03:31.336Z,463.00
2024-04-06T05:04:31.470Z,464.00
2024-04-06T05:05:31.642Z,464.00
2024-04-06T05:06:31.708Z,463.00
2024-04-06T05:07:31.843Z,461.00
2024-04-06T05:08:32.664Z,462.00
2024-04-06T05:09:32.128Z,460.00
2024-04-06T05:10:32.214Z,459.00
2024-04-06T05:11:32.369Z,461.00
2024-04-06T05:12:32.516Z,461.00
2024-04-06T05:13:32.608Z,461.00
2024-04-06T05:14:32.771Z,458.00
2024-04-06T05:15:32.843Z,460.00
2024-04-06T05:16:32.957Z,460.00
2024-04-06T05:17:33.139Z,458.00
2024-04-06T05:18:33.217Z,458.00
2024-04-06T05:19:33.347Z,461.00
2024-04-06T05:20:34.496Z,461.00
2024-04-06T05:21:33.654Z,460.00
2024-04-06T05:22:35.791Z,460.00
2024-04-06T05:23:33.980Z,459.00
2024-04-06T05:24:34.036Z,458.00
2024-04-06T05:25:35.164Z,458.00
2024-04-06T05:26:34.375Z,458.00
2024-04-06T05:27:34.460Z,457.00
2024-04-06T05:28:34.596Z,457.00
2024-04-06T05:29:34.740Z,456.00
2024-04-06T05:30:34.860Z,456.00
2024-04-06T05:31:35.015Z,457.00
2024-04-06T05:32:35.175Z,455.00
2024-04-06T05:33:35.282Z,454.00
2024-04-06T05:34:35.385Z,453.00
2024-04-06T05:35:35.537Z,453.00
2024-04-06T05:36:35.667Z,452.00
2024-04-06T05:37:35.791Z,454.00
2024-04-06T05:38:35.967Z,452.00
2024-04-06T05:39:36.075Z,451.00
2024-04-06T05:40:36.200Z,451.00
2024-04-06T05:41:36.404Z,453.00
2024-04-06T05:42:36.455Z,453.00
2024-04-06T05:43:36.571Z,454.00
2024-04-06T05:44:36.751Z,452.00
2024-04-06T05:45:37.786Z,451.00
2024-04-06T05:46:37.008Z,449.00
2024-04-06T05:47:37.132Z,448.00
2024-04-06T05:48:37.286Z,449.00
2024-04-06T05:49:37.404Z,450.00
2024-04-06T05:50:37.666Z,453.00
2024-04-06T05:51:37.661Z,452.00
2024-04-06T05:52:37.805Z,450.00
2024-04-06T05:53:37.909Z,452.00
2024-04-06T05:54:38.040Z,454.00
2024-04-06T05:55:38.165Z,453.00
2024-04-06T05:56:38.354Z,453.00
2024-04-06T05:57:38.401Z,452.00
2024-04-06T05:58:38.520Z,452.00
2024-04-06T05:59:38.682Z,450.00
2024-04-06T06:00:38.800Z,448.00
2024-04-06T06:01:38.931Z,450.00
2024-04-06T06:02:39.177Z,451.00
2024-04-06T06:03:39.196Z,452.00
2024-04-06T06:04:39.317Z,452.00
2024-04-06T06:05:39.479Z,452.00
2024-04-06T06:06:39.583Z,451.00
2024-04-06T06:07:39.717Z,451.00
2024-04-06T06:08:39.876Z,452.00
2024-04-06T06:09:39.983Z,452.00
2024-04-06T06:10:40.209Z,451.00
2024-04-06T06:11:40.324Z,452.00
2024-04-06T06:12:40.396Z,453.00
2024-04-06T06:13:40.500Z,451.00
2024-04-06T06:14:40.734Z,451.00
2024-04-06T06:15:40.774Z,451.00
2024-04-06T06:16:40.931Z,452.00
2024-04-06T06:17:42.032Z,453.00
2024-04-06T06:18:41.202Z,453.00
2024-04-06T06:19:41.361Z,453.00
2024-04-06T06:20:41.502Z,452.00
2024-04-06T06:21:44.704Z,452.00
2024-04-06T06:22:41.938Z,452.00
2024-04-06T06:23:41.805Z,452.00
2024-04-06T06:24:41.928Z,452.00
2024-04-06T06:25:43.000Z,453.00
2024-04-06T06:26:42.164Z,453.00
2024-04-06T06:27:44.620Z,450.00
2024-04-06T06:28:42.396Z,447.00
2024-04-06T06:29:42.542Z,448.00
2024-04-06T06:30:42.665Z,450.00
2024-04-06T06:31:42.820Z,451.00
2024-04-06T06:32:42.980Z,451.00
2024-04-06T06:33:43.050Z,450.00
2024-04-06T06:34:43.164Z,451.00
2024-04-06T06:40:43.902Z,455.00
2024-04-06T06:41:44.109Z,456.00
2024-04-06T06:42:44.174Z,456.00
2024-04-06T06:43:44.248Z,456.00
2024-04-06T06:44:44.396Z,458.00
2024-04-06T06:45:44.533Z,459.00
2024-04-06T06:46:44.658Z,459.00
2024-04-06T06:47:45.428Z,456.00
2024-04-06T06:48:44.902Z,457.00
2024-04-06T06:49:45.062Z,456.00
2024-04-06T06:50:45.218Z,455.00
2024-04-06T06:51:45.315Z,453.00
2024-04-06T06:52:45.462Z,451.00
2024-04-06T06:53:45.620Z,451.00
2024-04-06T06:54:45.728Z,452.00
2024-04-06T06:55:45.863Z,449.00
2024-04-06T06:56:46.002Z,449.00
2024-04-06T06:57:46.134Z,450.00
2024-04-06T06:58:46.285Z,450.00
2024-04-06T07:00:46.505Z,452.00
2024-04-06T07:01:46.605Z,452.00
2024-04-06T07:02:46.729Z,453.00
2024-04-06T07:03:46.838Z,451.00
2024-04-06T07:04:47.011Z,452.00
2024-04-06T07:05:47.134Z,453.00
2024-04-06T07:07:47.372Z,452.00
2024-04-06T07:09:02.455Z,451.00
2024-04-06T07:09:48.622Z,453.00
2024-04-06T07:10:47.749Z,452.00
2024-04-06T07:11:47.882Z,453.00
2024-04-06T07:12:48.023Z,452.00
2024-04-06T07:13:48.153Z,451.00
2024-04-06T07:14:48.284Z,452.00
2024-04-06T07:15:48.423Z,453.00
2024-04-06T07:16:48.585Z,452.00
2024-04-06T07:17:48.696Z,451.00
2024-04-06T07:18:48.817Z,453.00
2024-04-06T07:19:48.947Z,453.00
2024-04-06T07:20:49.090Z,455.00
2024-04-06T07:21:49.202Z,454.00
2024-04-06T07:22:49.336Z,452.00
2024-04-06T07:23:49.510Z,451.00
2024-04-06T07:24:49.632Z,448.00
2024-04-06T07:25:49.793Z,449.00
2024-04-06T07:26:49.949Z,448.00
2024-04-06T07:27:50.068Z,450.00
2024-04-06T07:28:50.267Z,453.00
2024-04-06T07:29:50.372Z,452.00
2024-04-06T07:30:50.523Z,451.00
2024-04-06T07:31:50.607Z,450.00
2024-04-06T07:32:53.544Z,452.00
2024-04-06T07:33:50.855Z,453.00
2024-04-06T07:34:50.980Z,451.00
2024-04-06T07:35:51.096Z,451.00
2024-04-06T07:36:51.250Z,450.00
2024-04-06T07:37:51.369Z,448.00
2024-04-06T07:39:51.668Z,446.00
2024-04-06T07:40:51.792Z,445.00
2024-04-06T07:41:51.918Z,444.00
2024-04-06T07:42:52.063Z,445.00
2024-04-06T07:43:52.148Z,445.00
2024-04-06T07:44:52.307Z,443.00
2024-04-06T07:45:52.451Z,445.00
2024-04-06T07:46:52.581Z,445.00
2024-04-06T07:47:52.682Z,444.00
2024-04-06T07:48:52.798Z,444.00
2024-04-06T07:49:53.011Z,447.00
2024-04-06T07:50:53.120Z,453.00
2024-04-06T07:51:53.246Z,454.00
2024-04-06T07:52:56.583Z,451.00
2024-04-06T07:53:53.564Z,450.00
2024-04-06T07:54:53.635Z,451.00
2024-04-06T07:55:53.764Z,451.00
2024-04-06T07:56:53.918Z,450.00
2024-04-06T07:57:54.056Z,448.00
2024-04-06T07:58:54.199Z,448.00
2024-04-06T07:59:54.818Z,448.00
2024-04-06T08:00:54.458Z,451.00
2024-04-06T08:01:54.587Z,449.00
2024-04-06T08:02:54.722Z,448.00
2024-04-06T08:03:54.859Z,449.00
2024-04-06T08:04:55.011Z,448.00
2024-04-06T08:05:55.570Z,448.00
2024-04-06T08:06:55.308Z,445.00
2024-04-06T08:07:55.437Z,445.00
2024-04-06T08:08:55.554Z,445.00
2024-04-06T08:09:55.692Z,443.00
2024-04-06T08:10:56.004Z,443.00
2024-04-06T08:11:55.984Z,443.00
2024-04-06T08:12:57.024Z,441.00
2024-04-06T08:13:56.230Z,442.00
2024-04-06T08:14:56.365Z,443.00
2024-04-06T08:15:56.492Z,445.00
2024-04-06T08:16:56.643Z,446.00
2024-04-06T08:17:56.755Z,445.00
2024-04-06T08:18:56.873Z,447.00
2024-04-06T08:19:56.996Z,444.00
2024-04-06T08:20:57.110Z,445.00
2024-04-06T08:21:57.252Z,446.00
2024-04-06T08:22:57.398Z,447.00
2024-04-06T08:23:57.525Z,446.00
2024-04-06T08:24:57.663Z,444.00
2024-04-06T08:25:57.807Z,445.00
2024-04-06T08:26:58.845Z,447.00
2024-04-06T08:27:58.038Z,447.00
2024-04-06T08:28:58.174Z,447.00
2024-04-06T08:29:58.297Z,450.00
2024-04-06T08:30:58.444Z,451.00
2024-04-06T08:31:58.565Z,451.00
2024-04-06T08:33:00.987Z,449.00
2024-04-06T08:33:58.919Z,447.00
2024-04-06T08:34:58.937Z,450.00
2024-04-06T08:35:59.102Z,452.00
2024-04-06T08:36:59.183Z,452.00
2024-04-06T08:37:59.318Z,451.00
2024-04-06T08:38:59.423Z,451.00
2024-04-06T08:39:59.634Z,451.00
2024-04-06T08:40:59.697Z,449.00
2024-04-06T08:41:59.808Z,451.00
2024-04-06T08:42:59.944Z,453.00
2024-04-06T08:44:00.073Z,452.00
2024-04-06T08:45:00.199Z,453.00
2024-04-06T08:46:00.367Z,452.00
2024-04-06T08:47:00.499Z,452.00
2024-04-06T08:48:00.606Z,450.00
2024-04-06T08:49:00.663Z,448.00
2024-04-06T08:50:00.803Z,446.00
2024-04-06T08:51:00.911Z,446.00
2024-04-06T08:52:01.070Z,446.00
2024-04-06T08:53:01.237Z,445.00
2024-04-06T08:54:01.319Z,446.00
2024-04-06T08:55:01.475Z,448.00
2024-04-06T08:56:01.580Z,448.00
2024-04-06T08:57:01.700Z,447.00
2024-04-06T08:58:01.864Z,443.00
2024-04-06T08:59:01.999Z,442.00
2024-04-06T09:00:02.123Z,442.00
2024-04-06T09:01:02.244Z,442.00
2024-04-06T09:02:02.382Z,442.00
2024-04-06T09:03:02.546Z,443.00
2024-04-06T09:04:02.676Z,445.00
2024-04-06T09:05:02.837Z,446.00
2024-04-06T09:06:02.937Z,447.00
2024-04-06T09:07:03.059Z,443.00
2024-04-06T09:08:03.181Z,441.00
2024-04-06T09:09:03.339Z,442.00
2024-04-06T09:10:03.456Z,441.00
2024-04-06T09:11:03.576Z,441.00
2024-04-06T09:12:03.697Z,441.00
2024-04-06T09:13:03.817Z,441.00
2024-04-06T09:14:03.993Z,439.00
2024-04-06T09:15:04.068Z,441.00
2024-04-06T09:16:04.192Z,438.00
2024-04-06T09:17:04.330Z,438.00
2024-04-06T09:18:04.443Z,440.00
2024-04-06T09:19:04.578Z,439.00
2024-04-06T09:20:07.022Z,439.00
2024-04-06T09:21:04.871Z,435.00
2024-04-06T09:22:04.978Z,436.00
2024-04-06T09:23:05.091Z,436.00
2024-04-06T09:24:05.235Z,436.00
2024-04-06T09:25:05.362Z,436.00
2024-04-06T09:26:05.513Z,436.00
2024-04-06T09:27:05.626Z,439.00
2024-04-06T09:28:05.745Z,439.00
2024-04-06T09:29:05.916Z,438.00
2024-04-06T09:30:06.054Z,436.00
2024-04-06T09:31:06.195Z,436.00
2024-04-06T09:32:06.310Z,436.00
2024-04-06T09:33:06.443Z,434.00
2024-04-06T09:34:06.568Z,431.00
2024-04-06T09:35:06.707Z,431.00
2024-04-06T09:36:06.838Z,430.00
2024-04-06T09:37:06.964Z,430.00
2024-04-06T09:38:07.073Z,433.00
2024-04-06T09:39:07.423Z,436.00
2024-04-06T09:40:07.425Z,437.00
2024-04-06T09:41:07.412Z,437.00
2024-04-06T09:42:07.576Z,439.00
2024-04-06T09:43:07.678Z,440.00
2024-04-06T09:44:07.815Z,439.00
2024-04-06T09:45:07.947Z,440.00
2024-04-06T09:46:08.108Z,440.00
2024-04-06T09:47:08.190Z,442.00
2024-04-06T09:48:08.321Z,440.00
2024-04-06T09:49:08.435Z,440.00
2024-04-06T09:50:08.590Z,440.00
2024-04-06T09:51:08.742Z,443.00
2024-04-06T09:52:08.911Z,444.00
2024-04-06T09:53:08.999Z,442.00
2024-04-06T09:54:09.133Z,438.00
2024-04-06T09:55:09.386Z,438.00
2024-04-06T09:56:09.370Z,438.00
2024-04-06T09:57:09.472Z,438.00
2024-04-06T09:58:09.667Z,438.00
2024-04-06T09:59:09.772Z,438.00
2024-04-06T10:00:09.912Z,436.00
2024-04-06T10:01:10.072Z,436.00
2024-04-06T10:02:11.133Z,440.00
2024-04-06T10:03:10.298Z,441.00
2024-04-06T10:04:10.416Z,441.00
2024-04-06T10:05:10.545Z,440.00
2024-04-06T10:06:10.669Z,439.00
2024-04-06T10:07:10.816Z,439.00
2024-04-06T10:08:10.908Z,439.00
2024-04-06T10:09:11.073Z,440.00
2024-04-06T10:10:11.225Z,440.00
2024-04-06T10:11:11.365Z,441.00
2024-04-06T10:12:11.454Z,442.00
2024-04-06T10:13:11.600Z,441.00
2024-04-06T10:14:11.675Z,443.00
2024-04-06T10:15:11.845Z,443.00
2024-04-06T10:16:11.954Z,443.00
2024-04-06T10:17:12.072Z,443.00
2024-04-06T10:18:13.187Z,443.00
2024-04-06T10:29:46.588Z,495.00
2024-04-06T10:30:46.721Z,455.00
2024-04-06T10:31:47.823Z,452.00
2024-04-06T10:32:46.938Z,449.00
2024-04-06T10:33:47.056Z,446.00
2024-04-06T10:34:50.901Z,445.00
2024-04-06T10:35:47.331Z,444.00
2024-04-06T10:36:47.444Z,445.00
2024-04-06T10:37:47.563Z,441.00
2024-04-06T10:38:47.687Z,441.00
2024-04-06T10:39:47.797Z,442.00
2024-04-06T10:40:47.966Z,444.00
2024-04-06T10:41:48.072Z,445.00
2024-04-06T10:42:48.203Z,443.00
2024-04-06T10:43:48.306Z,443.00
2024-04-06T10:44:48.467Z,442.00
2024-04-06T10:45:48.597Z,442.00
2024-04-06T10:46:48.715Z,441.00
2024-04-06T10:47:48.848Z,440.00
2024-04-06T10:48:48.965Z,440.00
2024-04-06T10:49:49.096Z,440.00
2024-04-06T10:50:49.253Z,439.00
2024-04-06T10:51:49.337Z,438.00
2024-04-06T10:52:49.468Z,437.00
2024-04-06T10:53:49.616Z,440.00
2024-04-06T10:54:49.718Z,441.00
2024-04-06T10:55:49.854Z,442.00
2024-04-06T10:56:49.988Z,442.00
2024-04-06T10:57:50.136Z,441.00
2024-04-06T10:58:50.265Z,442.00
2024-04-06T10:59:50.381Z,441.00
2024-04-06T11:00:50.510Z,439.00
2024-04-06T11:01:50.641Z,440.00
2024-04-06T11:02:50.788Z,440.00
2024-04-06T11:03:50.914Z,440.00
2024-04-06T11:04:51.019Z,442.00
2024-04-06T11:05:51.174Z,442.00
2024-04-06T11:06:51.298Z,440.00
2024-04-06T11:07:51.419Z,437.00
2024-04-06T11:08:51.550Z,435.00
2024-04-06T11:09:51.656Z,435.00
2024-04-06T11:10:51.830Z,435.00
2024-04-06T11:11:51.904Z,436.00
2024-04-06T11:12:52.029Z,435.00
2024-04-06T11:13:52.124Z,433.00
2024-04-06T11:14:52.260Z,435.00
2024-04-06T11:15:52.373Z,435.00
2024-04-06T11:16:52.527Z,436.00
2024-04-06T11:17:52.640Z,436.00
2024-04-06T11:18:52.766Z,436.00
2024-04-06T11:19:52.883Z,435.00
2024-04-06T11:20:53.010Z,435.00
2024-04-06T11:21:53.148Z,433.00
2024-04-06T11:22:53.289Z,431.00
2024-04-06T11:23:53.393Z,432.00
2024-04-06T11:24:53.508Z,434.00
2024-04-06T11:25:53.638Z,436.00
2024-04-06T11:26:53.762Z,438.00
2024-04-06T11:27:54.854Z,439.00
2024-04-06T11:28:54.016Z,441.00
2024-04-06T11:29:55.104Z,438.00
2024-04-06T11:30:54.261Z,438.00
2024-04-06T11:31:54.370Z,437.00
2024-04-06T11:32:54.494Z,438.00
2024-04-06T11:33:54.651Z,437.00
2024-04-06T11:34:54.762Z,437.00
2024-04-06T11:35:54.880Z,437.00
2024-04-06T11:36:55.966Z,439.00
2024-04-06T11:37:55.129Z,438.00
2024-04-06T11:38:55.265Z,435.00
2024-04-06T11:39:55.367Z,434.00
2024-04-06T11:40:55.471Z,433.00
2024-04-06T11:41:55.593Z,433.00
2024-04-06T11:42:55.716Z,432.00
2024-04-06T11:43:55.842Z,434.00
2024-04-06T11:44:55.963Z,438.00
2024-04-06T11:45:56.119Z,439.00
2024-04-06T11:46:56.257Z,440.00
2024-04-06T11:47:56.387Z,437.00
2024-04-06T11:48:56.520Z,434.00
2024-04-06T11:49:56.640Z,432.00
2024-04-06T11:50:56.777Z,431.00
2024-04-06T11:51:56.907Z,431.00
2024-04-06T11:52:57.054Z,429.00
2024-04-06T11:53:57.152Z,428.00
2024-04-06T11:54:57.282Z,427.00
2024-04-06T11:55:57.385Z,427.00
2024-04-06T11:56:57.499Z,427.00
2024-04-06T11:57:57.658Z,425.00
2024-04-06T11:58:57.778Z,425.00
2024-04-06T11:59:57.924Z,427.00
2024-04-06T12:00:58.032Z,428.00
2024-04-06T12:01:58.182Z,432.00
2024-04-06T12:02:58.295Z,435.00
2024-04-06T12:03:58.407Z,434.00
2024-04-06T12:04:58.523Z,433.00
2024-04-06T12:05:59.561Z,433.00
2024-04-06T12:06:58.748Z,434.00
2024-04-06T12:07:58.878Z,436.00
2024-04-06T12:08:59.017Z,436.00
2024-04-06T12:09:59.132Z,436.00
2024-04-06T12:10:59.232Z,436.00
2024-04-06T12:11:59.420Z,436.00
2024-04-06T12:12:59.509Z,434.00
2024-04-06T12:13:59.620Z,434.00
2024-04-06T12:14:59.743Z,433.00
2024-04-06T12:15:59.851Z,435.00
2024-04-06T12:16:59.977Z,434.00
2024-04-06T12:18:00.093Z,436.00
2024-04-06T12:19:00.232Z,438.00
2024-04-06T12:20:00.376Z,439.00
2024-04-06T12:21:00.560Z,438.00
2024-04-06T12:22:00.614Z,438.00
2024-04-06T12:23:00.733Z,437.00
2024-04-06T12:24:00.824Z,438.00
2024-04-06T12:25:00.970Z,438.00
2024-04-06T12:26:01.096Z,438.00
2024-04-06T12:27:01.179Z,437.00
2024-04-06T12:28:01.293Z,434.00
2024-04-06T12:29:01.451Z,433.00
2024-04-06T12:30:02.493Z,432.00
2024-04-06T12:31:01.610Z,432.00
2024-04-06T12:32:01.728Z,431.00
2024-04-06T12:33:01.841Z,431.00
2024-04-06T12:34:01.989Z,432.00
2024-04-06T12:35:03.073Z,431.00
2024-04-06T12:36:02.235Z,431.00
2024-04-06T12:37:02.338Z,431.00
2024-04-06T12:38:02.474Z,434.00
2024-04-06T12:39:02.597Z,435.00
2024-04-06T12:40:02.706Z,436.00
2024-04-06T12:41:02.820Z,436.00
2024-04-06T12:42:02.957Z,435.00
2024-04-06T12:43:03.059Z,435.00
2024-04-06T12:44:03.186Z,434.00
2024-04-06T12:45:04.493Z,434.00
2024-04-06T12:46:03.420Z,436.00
2024-04-06T12:47:03.556Z,433.00
2024-04-06T12:48:03.641Z,431.00
2024-04-06T12:49:03.812Z,431.00
2024-04-06T12:50:03.927Z,430.00
2024-04-06T12:51:06.749Z,430.00
2024-04-06T12:52:04.176Z,430.00
2024-04-06T12:53:04.295Z,431.00
2024-04-06T12:54:04.433Z,432.00
2024-04-06T12:55:04.540Z,435.00
2024-04-06T12:56:04.652Z,438.00
2024-04-06T12:57:04.757Z,440.00
2024-04-06T12:58:04.914Z,439.00
2024-04-06T12:59:05.028Z,439.00
2024-04-06T13:00:05.151Z,438.00
2024-04-06T13:01:05.248Z,438.00
2024-04-06T13:02:05.377Z,435.00
2024-04-06T13:03:05.508Z,433.00
2024-04-06T13:04:06.087Z,433.00
2024-04-06T13:05:05.725Z,435.00
2024-04-06T13:06:05.857Z,434.00
2024-04-06T13:07:06.015Z,435.00
2024-04-06T13:08:06.118Z,437.00
2024-04-06T13:09:06.224Z,438.00
2024-04-06T13:10:07.304Z,438.00
2024-04-06T13:11:06.446Z,441.00
2024-04-06T13:12:06.547Z,442.00
2024-04-06T13:13:06.704Z,441.00
2024-04-06T13:14:06.807Z,442.00
2024-04-06T13:15:06.945Z,441.00
2024-04-06T13:16:07.040Z,442.00
2024-04-06T13:17:07.207Z,438.00
2024-04-06T13:18:07.315Z,437.00
2024-04-06T13:19:07.422Z,436.00
2024-04-06T13:20:07.571Z,436.00
2024-04-06T13:21:07.641Z,437.00
2024-04-06T13:22:07.896Z,435.00
2024-04-06T13:23:07.900Z,435.00
2024-04-06T13:24:08.002Z,435.00
2024-04-06T13:25:08.125Z,432.00
2024-04-06T13:26:08.226Z,431.00
2024-04-06T13:27:08.373Z,432.00
2024-04-06T13:28:08.496Z,434.00
2024-04-06T13:29:08.601Z,433.00
2024-04-06T13:30:08.758Z,432.00
2024-04-06T13:31:08.817Z,431.00
2024-04-06T13:32:08.922Z,430.00
2024-04-06T13:33:09.052Z,432.00
2024-04-06T13:34:09.147Z,431.00
2024-04-06T13:35:09.330Z,432.00
2024-04-06T13:36:09.414Z,432.00
2024-04-06T13:37:09.544Z,431.00
2024-04-06T13:38:09.639Z,432.00
2024-04-06T13:39:09.760Z,431.00
2024-04-06T13:40:09.924Z,431.00
2024-04-06T13:41:10.041Z,431.00
2024-04-06T13:42:10.139Z,431.00
2024-04-06T13:43:10.250Z,431.00
2024-04-06T13:44:10.347Z,433.00
2024-04-06T13:45:10.536Z,435.00
2024-04-06T13:46:10.601Z,435.00
2024-04-06T13:47:10.719Z,434.00
2024-04-06T13:48:10.832Z,433.00
2024-04-06T13:49:10.932Z,433.00
2024-04-06T13:50:11.110Z,433.00
2024-04-06T13:51:11.169Z,434.00
2024-04-06T13:52:11.266Z,434.00
2024-04-06T13:53:11.396Z,434.00
2024-04-06T13:54:11.486Z,431.00
2024-04-06T13:55:11.648Z,429.00
2024-04-06T13:56:11.810Z,429.00
2024-04-06T13:57:11.908Z,430.00
2024-04-06T13:58:12.021Z,434.00
2024-04-06T13:59:12.126Z,437.00
2024-04-06T14:00:12.265Z,438.00
2024-04-06T14:01:12.369Z,437.00
2024-04-06T14:02:12.501Z,435.00
2024-04-06T14:03:12.617Z,433.00
2024-04-06T14:04:12.720Z,434.00
2024-04-06T14:05:12.835Z,436.00
2024-04-06T14:06:12.957Z,436.00
2024-04-06T14:07:16.016Z,435.00
2024-04-06T14:08:13.173Z,436.00
2024-04-06T14:09:13.284Z,436.00
2024-04-06T14:10:13.449Z,436.00
2024-04-06T14:11:13.526Z,436.00
2024-04-06T14:12:13.680Z,436.00
2024-04-06T14:13:13.779Z,438.00
2024-04-06T14:14:13.892Z,440.00
2024-04-06T14:15:14.025Z,439.00
2024-04-06T14:16:14.135Z,442.00
2024-04-06T14:17:14.265Z,441.00
2024-04-06T14:18:14.359Z,442.00
2024-04-06T14:19:14.468Z,443.00
2024-04-06T14:20:14.584Z,444.00
2024-04-06T14:21:14.683Z,446.00
2024-04-06T14:22:14.820Z,445.00
2024-04-06T14:23:14.918Z,444.00
2024-04-06T14:24:15.018Z,441.00
2024-04-06T14:25:17.598Z,442.00
2024-04-06T14:26:15.250Z,444.00
2024-04-06T14:27:15.357Z,442.00
2024-04-06T14:28:15.472Z,441.00
2024-04-06T14:29:15.574Z,440.00
2024-04-06T14:30:15.679Z,439.00
2024-04-06T14:31:19.104Z,441.00
2024-04-06T14:32:15.947Z,441.00
2024-04-06T14:33:16.073Z,441.00
2024-04-06T14:34:16.214Z,443.00
2024-04-06T14:35:16.319Z,443.00
2024-04-06T14:36:16.435Z,444.00
2024-04-06T14:37:16.541Z,444.00
2024-04-06T14:38:16.656Z,446.00
2024-04-06T14:39:16.762Z,447.00
2024-04-06T14:40:16.882Z,444.00
2024-04-06T14:41:16.982Z,442.00
2024-04-06T14:42:17.093Z,445.00
2024-04-06T14:43:18.771Z,441.00
2024-04-06T14:44:17.430Z,437.00
2024-04-06T14:45:17.565Z,439.00
2024-04-06T14:46:17.675Z,439.00
2024-04-06T14:47:17.794Z,439.00
2024-04-06T14:48:17.895Z,436.00
2024-04-06T14:49:18.040Z,434.00
2024-04-06T14:50:18.188Z,434.00
2024-04-06T14:51:18.270Z,435.00
2024-04-06T14:52:18.412Z,437.00
2024-04-06T14:53:18.518Z,440.00
2024-04-06T14:54:18.640Z,438.00
2024-04-06T14:55:19.254Z,439.00
2024-04-06T14:56:18.863Z,439.00
2024-04-06T14:57:19.021Z,438.00
2024-04-06T14:58:19.143Z,439.00
2024-04-06T14:59:19.238Z,438.00
2024-04-06T15:00:19.386Z,439.00
2024-04-06T15:01:19.489Z,440.00
2024-04-06T15:02:19.603Z,441.00
2024-04-06T15:03:19.714Z,442.00
2024-04-06T15:04:19.847Z,441.00
2024-04-06T15:05:19.978Z,439.00
2024-04-06T15:06:20.102Z,438.00
2024-04-06T15:07:30.687Z,441.00
2024-04-06T15:08:21.330Z,440.00
2024-04-06T15:09:20.466Z,440.00
2024-04-06T15:10:20.613Z,440.00
2024-04-06T15:11:20.708Z,439.00
2024-04-06T15:12:20.848Z,438.00
2024-04-06T15:13:20.994Z,438.00
2024-04-06T15:14:21.081Z,442.00
2024-04-06T15:15:21.220Z,441.00
2024-04-06T15:16:21.366Z,443.00
2024-04-06T15:17:21.458Z,443.00
2024-04-06T15:18:21.577Z,443.00
2024-04-06T15:19:21.750Z,443.00
2024-04-06T15:20:21.832Z,442.00
2024-04-06T15:21:21.963Z,440.00
2024-04-06T15:22:22.102Z,438.00
2024-04-06T15:23:22.187Z,437.00
2024-04-06T15:24:22.348Z,436.00
2024-04-06T15:25:22.475Z,434.00
2024-04-06T15:26:22.602Z,434.00
2024-04-06T15:27:22.724Z,434.00
2024-04-06T15:28:22.849Z,435.00
2024-04-06T15:29:22.955Z,435.00
2024-04-06T15:30:23.063Z,437.00
2024-04-06T15:31:23.197Z,438.00
2024-04-06T15:32:23.299Z,437.00
2024-04-06T15:33:23.397Z,438.00
2024-04-06T15:34:23.654Z,437.00
2024-04-06T15:35:23.710Z,436.00
2024-04-06T15:36:23.826Z,436.00
2024-04-06T15:37:23.944Z,435.00
2024-04-06T15:38:24.059Z,437.00
2024-04-06T15:39:24.168Z,440.00
2024-04-06T15:40:24.333Z,441.00
2024-04-06T15:41:24.419Z,437.00
2024-04-06T15:42:24.555Z,438.00
2024-04-06T15:43:24.680Z,437.00
2024-04-06T15:44:24.771Z,437.00
2024-04-06T15:45:24.900Z,439.00
2024-04-06T15:46:25.059Z,441.00
2024-04-06T15:47:25.125Z,440.00
2024-04-06T15:48:25.238Z,439.00
2024-04-06T15:49:25.354Z,444.00
2024-04-06T15:50:25.476Z,443.00
2024-04-06T15:51:25.611Z,444.00
2024-04-06T15:52:25.739Z,444.00
2024-04-06T15:53:25.840Z,450.00
2024-04-06T15:54:25.972Z,449.00
2024-04-06T15:55:26.092Z,449.00
2024-04-06T15:56:26.207Z,450.00
2024-04-06T15:57:26.322Z,449.00
2024-04-06T15:58:26.472Z,448.00
2024-04-06T15:59:26.579Z,447.00
2024-04-06T16:00:26.704Z,446.00
2024-04-06T16:01:26.818Z,442.00
2024-04-06T16:02:26.936Z,442.00
2024-04-06T16:03:27.078Z,442.00
2024-04-06T16:04:27.232Z,445.00
2024-04-06T16:05:27.302Z,444.00
2024-04-06T16:06:27.406Z,443.00
2024-04-06T16:07:27.551Z,443.00
2024-04-06T16:08:27.626Z,445.00
2024-04-06T16:09:27.735Z,442.00
2024-04-06T16:10:27.896Z,442.00
2024-04-06T16:11:27.984Z,441.00
2024-04-06T16:12:28.136Z,443.00
2024-04-06T16:13:28.273Z,441.00
2024-04-06T16:14:28.367Z,439.00
2024-04-06T16:15:28.492Z,438.00
2024-04-06T16:16:28.676Z,438.00
2024-04-06T16:28:57.908Z,484.00
2024-04-06T16:29:57.989Z,454.00
2024-04-06T16:30:58.094Z,450.00
2024-04-06T16:31:58.255Z,447.00
2024-04-06T16:32:58.403Z,448.00
2024-04-06T16:33:58.549Z,445.00
2024-04-06T16:34:58.672Z,444.00
2024-04-06T16:35:58.774Z,443.00
2024-04-06T16:36:58.891Z,443.00
2024-04-06T16:37:59.005Z,442.00
2024-04-06T16:38:59.164Z,441.00
2024-04-06T16:39:59.309Z,440.00
2024-04-06T16:40:59.416Z,439.00
2024-04-06T16:41:59.538Z,436.00
2024-04-06T16:42:59.663Z,438.00
2024-04-06T16:43:59.771Z,439.00
2024-04-06T16:44:59.918Z,440.00
2024-04-06T16:46:00.076Z,438.00
2024-04-06T16:47:00.150Z,437.00
2024-04-06T16:48:03.939Z,438.00
2024-04-06T16:49:00.396Z,438.00
2024-04-06T16:50:00.542Z,438.00
2024-04-06T16:51:00.654Z,436.00
2024-04-06T16:52:00.758Z,439.00
2024-04-06T16:53:00.898Z,442.00
2024-04-06T16:54:00.992Z,440.00
2024-04-06T16:55:01.150Z,438.00
2024-04-06T16:56:01.245Z,437.00
2024-04-06T16:57:01.352Z,436.00
2024-04-06T16:58:01.472Z,436.00
2024-04-06T16:59:01.595Z,437.00
2024-04-06T17:00:01.774Z,438.00
2024-04-06T17:01:01.896Z,439.00
2024-04-06T17:02:02.014Z,439.00
2024-04-06T17:03:02.138Z,440.00
2024-04-06T17:04:02.235Z,437.00
2024-04-06T17:05:02.402Z,438.00
2024-04-06T17:06:02.475Z,439.00
2024-04-06T17:07:02.608Z,437.00
2024-04-06T17:08:02.693Z,435.00
2024-04-06T17:09:02.823Z,435.00
2024-04-06T17:10:02.961Z,434.00
2024-04-06T17:11:03.113Z,434.00
2024-04-06T17:12:03.262Z,434.00
2024-04-06T17:13:03.400Z,432.00
2024-04-06T17:14:03.505Z,434.00
2024-04-06T17:15:03.619Z,437.00